Metropolitan Oakland International Airport
KOAK : now visible

Airfield :











YOU CAN JOIN US ON...

 
LOGIN :

Register | Disclaimer

   EN    FR    IT 

 









Legend :    VFR   Marginal VFR   IFR   Intensive IFR   Very Intensive IFR
Visi :
Ceiling :
>= 8 km
>= 3000ft
5 to 8 km
1000 to 3000 ft
1500m to 5 km
500 to 1000 ft
800 to 1500m
200 to 500 ft
< 800m
< 200 ft
Symbols :   Thunderstorms  Fog  Heavy snow  Heavy precipitations  Wind > 20 kt






- Airport Elevation : 9 ft
- IATA code : OAK


KOAK - Metropolitan Oakland International

CURRENT METAR :
  • 080753Z 21006KT 10SM SCT017 BKN025 BKN040 14/13 A2997 RMK AO2 RAB0657E37 SLP147 P0001 T01440133 401780139

EXPIRED METARs :
  • 080734Z 21009KT 7SM -RA SCT016 BKN023 OVC039 14/13 A2996 RMK AO2 RAB0657 P0001 T01440128
  • 080653Z 19013KT 10SM FEW022 SCT030 BKN050 14/12 A2996 RMK AO2 RAE23 SLP145 P0010 T01440122
  • 080629Z 18008KT 10SM FEW010 BKN033 BKN045 14/12 A2996 RMK AO2 RAE23 P0010 T01390122
  • 080615Z 20009KT 8SM -RA FEW010 BKN026 BKN035 14/13 A2996 RMK AO2 P0010 T01440128
  • 080600Z 23012KT 1 3/4SM +RA FEW009 BKN015 OVC032 15/12 A2996 RMK AO2 P0009 T01500122
  • 080553Z 24010KT 4SM RA BR SCT015 BKN020 OVC046 14/13 A2996 RMK AO2 RAB0459 SLP144 P0003 60007 T01440128 10167 20144 53007

TAF KOAK
Valid from the 08 at 06:00 until the 09 at 12:00 UTC


080539Z 0806/0912 21013KT 5SM -SHRA BKN025 OVC040
FM081000 22010KT P6SM VCSH BKN025 OVC040
FM081700 20005KT P6SM VCSH BKN025 OVC040
FM082100 27010KT P6SM VCSH BKN030 OVC040
FM090300 29010KT P6SM BKN030 OVC040
FM090800 29004KT P6SM BKN030



MET'MAP, your aeronautical weather chart ! - Copyright ORBIFLY December 2007 - Disclaimer

ORBIFLY MET'MAP TEAM :

Programming & Development : Alexandra Zaïnal
Concept & original design : Baudouin d'Aumeries
Assistance for programming : Marc-Olivier Méhu
Technical & hardware support : Manuel Goepfert

Contact : metmap@orbifly.com




SOURCES & CREDITS :

   NOAA       Earth
Advisory